Aviation Digital Data Service (ADDS)

Output produced by METARs form (1503 UTC 19 January 2017)
found at http://aviationweather.gov/adds/metars/
 
KPOU 191136Z 1912/2012 00000KT 4SM BR OVC035 
     TEMPO 1912/1914 1SM BR FEW025 OVC035 
     FM191400 VRB03KT P6SM SCT025 SCT250 
     FM191600 31005KT P6SM SCT250